Time;durP1;ratioP1;P1;durP2;ratioP2;P2;SDS_P1;SDS_P2;PMS_P1;PMS_P2;Temp;Humidity;BMP_temperature;BMP_pressure;BME280_temperature;BME280_humidity;BME280_pressure;Samples;Min_cycle;Max_cycle;Signal;HPM_P1;HPM_P2
2023/12/30 00:01:12;;;;;;;16.60;9.90;;;;;;;1.41;78.38;95051.81;5008358;28;20030;-68
2023/12/30 00:03:38;;;;;;;12.30;8.57;;;;;;;1.27;78.41;95063.44;5007779;28;20036;-68
2023/12/30 00:06:03;;;;;;;12.15;7.65;;;;;;;1.30;78.82;95062.50;4986258;28;20338;-68
2023/12/30 00:08:29;;;;;;;12.02;7.82;;;;;;;1.08;78.87;95045.47;5009688;28;20056;-68
2023/12/30 00:10:54;;;;;;;14.73;8.65;;;;;;;1.21;78.34;95053.47;4992117;28;20034;-68
2023/12/30 00:13:19;;;;;;;12.25;7.90;;;;;;;1.10;78.57;95053.09;4974812;28;20442;-68
2023/12/30 00:15:45;;;;;;;12.30;6.88;;;;;;;0.95;79.37;95033.25;5004999;28;20036;-68
2023/12/30 00:18:10;;;;;;;12.55;7.13;;;;;;;1.18;78.47;95058.72;5010015;28;20034;-68
2023/12/30 00:20:36;;;;;;;12.35;7.75;;;;;;;1.13;80.19;95064.94;4971470;28;20033;-68
2023/12/30 00:23:01;;;;;;;12.98;8.05;;;;;;;1.19;81.16;95067.25;4990773;28;20038;-68
2023/12/30 00:25:27;;;;;;;13.32;8.07;;;;;;;1.20;80.85;95054.38;5007402;28;20049;-68
2023/12/30 00:27:53;;;;;;;12.32;7.63;;;;;;;1.21;79.62;95056.03;5010496;28;20034;-68
2023/12/30 00:30:18;;;;;;;12.15;7.38;;;;;;;1.12;79.45;95041.09;5005547;28;20026;-68
2023/12/30 00:32:44;;;;;;;13.15;7.85;;;;;;;1.16;79.61;95072.50;4975469;28;20049;-68
2023/12/30 00:35:09;;;;;;;12.43;8.10;;;;;;;1.24;79.97;95057.63;5004236;28;20057;-68
2023/12/30 00:37:34;;;;;;;18.15;10.32;;;;;;;1.30;79.78;95078.69;4987849;28;20033;-68
2023/12/30 00:40:00;;;;;;;31.50;19.65;;;;;;;1.18;79.75;95070.69;5007550;28;20348;-68
2023/12/30 00:42:25;;;;;;;30.75;18.73;;;;;;;1.01;80.86;95067.13;5009207;28;20026;-68
2023/12/30 00:44:51;;;;;;;15.45;9.55;;;;;;;1.36;80.24;95077.59;4972966;28;20459;-68
2023/12/30 00:47:17;;;;;;;15.60;7.72;;;;;;;1.23;79.78;95068.78;4991554;28;20029;-68
2023/12/30 00:49:43;;;;;;;13.02;8.05;;;;;;;0.99;80.02;95066.34;4986568;28;20030;-68
2023/12/30 00:52:08;;;;;;;13.75;7.75;;;;;;;1.08;79.64;95067.69;4991261;28;20475;-68
2023/12/30 00:54:33;;;;;;;10.90;7.68;;;;;;;1.21;79.65;95076.50;5005936;28;20026;-68
2023/12/30 00:56:59;;;;;;;14.35;8.27;;;;;;;1.16;79.05;95073.31;4990082;28;20030;-68
2023/12/30 00:59:24;;;;;;;13.98;8.27;;;;;;;1.20;77.94;95074.00;5007591;28;20424;-68
2023/12/30 01:01:49;;;;;;;12.88;8.55;;;;;;;1.14;78.15;95076.81;4991196;28;20033;-68
2023/12/30 01:04:15;;;;;;;10.43;7.18;;;;;;;0.97;79.11;95077.53;5005543;28;20084;-68
2023/12/30 01:06:40;;;;;;;11.55;7.35;;;;;;;0.97;78.54;95073.25;5004470;28;20042;-68
2023/12/30 01:09:06;;;;;;;16.85;8.32;;;;;;;0.45;79.27;95044.69;4989896;28;20147;-68
2023/12/30 01:11:32;;;;;;;17.02;8.93;;;;;;;0.64;80.28;95071.19;5008986;28;20155;-68
2023/12/30 01:13:58;;;;;;;12.90;8.48;;;;;;;0.75;81.25;95073.28;5002575;28;20049;-68
2023/12/30 01:16:23;;;;;;;13.63;8.70;;;;;;;0.92;81.62;95072.63;4990387;28;20033;-68
2023/12/30 01:18:48;;;;;;;13.55;8.48;;;;;;;1.06;81.52;95077.16;4990720;28;20088;-68
2023/12/30 01:21:14;;;;;;;15.38;8.73;;;;;;;1.15;81.47;95066.53;4994364;28;20033;-68
2023/12/30 01:23:39;;;;;;;13.30;8.80;;;;;;;1.16;81.07;95078.44;4978266;28;20030;-68
2023/12/30 01:26:05;;;;;;;15.27;9.05;;;;;;;1.39;79.65;95080.00;4993381;28;20060;-68
2023/12/30 01:28:31;;;;;;;13.15;8.70;;;;;;;1.27;80.51;95073.69;5011515;28;20087;-68
2023/12/30 01:30:56;;;;;;;14.32;8.45;;;;;;;1.35;80.47;95075.94;5012389;28;20034;-68
2023/12/30 01:33:22;;;;;;;13.52;9.10;;;;;;;1.42;78.56;95076.50;4976575;28;20554;-68
2023/12/30 01:35:48;;;;;;;17.77;11.00;;;;;;;1.19;79.65;95047.59;5012227;28;20037;-68
2023/12/30 01:38:13;;;;;;;18.70;11.07;;;;;;;1.24;79.35;95066.16;4994185;28;20041;-68
2023/12/30 01:40:38;;;;;;;17.27;10.60;;;;;;;1.10;78.54;95058.22;4978161;28;20030;-68
2023/12/30 01:43:05;;;;;;;20.58;12.88;;;;;;;1.11;78.42;95058.16;4976817;28;20571;-68
2023/12/30 01:45:31;;;;;;;24.05;14.45;;;;;;;0.90;79.54;95064.16;4994334;28;20030;-68
2023/12/30 01:47:57;;;;;;;20.27;13.43;;;;;;;0.88;80.58;95068.50;4977765;28;20416;-68
2023/12/30 01:50:22;;;;;;;21.63;13.32;;;;;;;0.86;79.22;95063.47;4994308;28;20083;-68
2023/12/30 01:52:48;;;;;;;25.67;14.98;;;;;;;0.71;80.48;95064.09;4992830;28;20124;-68
2023/12/30 01:55:14;;;;;;;22.30;13.23;;;;;;;0.65;79.86;95057.50;5011886;28;20026;-68
2023/12/30 01:57:39;;;;;;;22.67;14.80;;;;;;;0.62;79.99;95067.84;4992859;28;20038;-68
2023/12/30 02:00:05;;;;;;;21.58;13.43;;;;;;;0.38;81.00;95059.41;4993768;28;20056;-68
2023/12/30 02:02:30;;;;;;;17.30;11.52;;;;;;;0.62;80.16;95057.63;5011373;28;20530;-68
2023/12/30 02:04:56;;;;;;;20.58;12.93;;;;;;;0.68;80.76;95045.47;5011602;28;20034;-68
2023/12/30 02:07:21;;;;;;;23.98;13.23;;;;;;;0.70;80.62;95051.34;4980548;28;20504;-68
2023/12/30 02:09:47;;;;;;;18.67;12.27;;;;;;;0.12;80.93;94995.72;4974301;28;20412;-68
2023/12/30 02:12:12;;;;;;;17.85;11.20;;;;;;;0.57;80.93;95030.56;4974474;28;20226;-69
2023/12/30 02:14:37;;;;;;;17.42;9.38;;;;;;;0.67;80.99;95039.53;4991741;28;20042;-68
2023/12/30 02:17:03;;;;;;;15.93;9.40;;;;;;;0.66;81.60;95025.06;5006566;28;20141;-68
2023/12/30 02:19:28;;;;;;;17.67;10.05;;;;;;;0.66;81.04;95037.84;4993769;28;20127;-68
2023/12/30 02:21:54;;;;;;;20.83;14.18;;;;;;;0.44;81.08;95041.25;4993671;28;20034;-68
2023/12/30 02:24:20;;;;;;;19.80;13.40;;;;;;;0.44;81.05;95043.81;4991519;28;20034;-68
2023/12/30 02:26:46;;;;;;;20.33;14.60;;;;;;;0.38;81.62;95035.56;5011151;28;20038;-69
2023/12/30 02:29:11;;;;;;;33.97;23.27;;;;;;;0.34;81.48;95055.31;5011065;28;20392;-68
2023/12/30 02:31:45;;;;;;;37.83;24.45;;;;;;;0.13;81.87;95033.97;4993674;28;20085;-68
2023/12/30 02:34:15;;;;;;;29.88;20.35;;;;;;;0.43;80.82;95057.50;4977108;28;20045;-68
2023/12/30 02:36:40;;;;;;;31.33;20.80;;;;;;;0.40;80.53;95051.69;4994065;28;20412;-68
2023/12/30 02:39:05;;;;;;;34.13;20.88;;;;;;;0.25;80.96;95053.09;5010889;28;20041;-68
2023/12/30 02:41:31;;;;;;;34.97;21.73;;;;;;;0.18;81.26;95056.81;5011004;28;20049;-68
2023/12/30 02:44:02;;;;;;;30.00;20.13;;;;;;;0.35;80.81;95056.97;5009385;28;20034;-69
2023/12/30 02:46:28;;;;;;;26.88;17.88;;;;;;;0.25;80.40;95052.28;4977260;28;20038;-68
2023/12/30 02:48:53;;;;;;;25.85;17.08;;;;;;;0.26;80.95;95052.22;4977198;28;20538;-68
2023/12/30 02:51:19;;;;;;;26.95;16.55;;;;;;;0.29;80.29;95054.66;4976426;28;20077;-68
2023/12/30 02:53:44;;;;;;;20.77;14.68;;;;;;;0.14;80.66;95045.03;4976943;28;20037;-68
2023/12/30 02:56:23;;;;;;;21.92;14.52;;;;;;;0.07;80.94;95039.31;4977143;28;20419;-68
2023/12/30 02:58:56;;;;;;;25.10;13.90;;;;;;;0.23;80.02;95049.78;4978623;28;20030;-68
2023/12/30 03:01:23;;;;;;;18.77;12.15;;;;;;;0.09;80.25;95040.09;4979902;28;20419;-69
2023/12/30 03:03:51;;;;;;;22.13;12.27;;;;;;;0.26;79.92;95048.84;4997252;28;20033;-69
2023/12/30 03:06:17;;;;;;;18.50;11.55;;;;;;;0.25;80.06;95053.09;5014593;28;20530;-68
2023/12/30 03:08:42;;;;;;;17.65;10.90;;;;;;;0.40;78.53;95044.84;4996865;28;20026;-69
2023/12/30 03:11:09;;;;;;;19.90;12.25;;;;;;;0.19;79.30;95043.94;5013698;28;20034;-68
2023/12/30 03:13:34;;;;;;;19.83;12.10;;;;;;;-0.03;79.60;95049.06;5004048;28;20103;-68
2023/12/30 03:16:00;;;;;;;19.50;12.32;;;;;;;0.20;79.60;95040.53;4975987;28;20038;-68
2023/12/30 03:18:25;;;;;;;22.83;12.93;;;;;;;0.07;79.34;95046.97;4991074;28;20038;-68
2023/12/30 03:20:51;;;;;;;21.25;12.80;;;;;;;-0.12;79.86;95054.50;5009486;28;20037;-68
2023/12/30 03:23:16;;;;;;;16.98;10.98;;;;;;;0.04;80.33;95036.88;4973554;28;20579;-68
2023/12/30 03:25:42;;;;;;;16.60;10.73;;;;;;;0.15;80.26;95050.09;4992748;28;20026;-69
2023/12/30 03:28:07;;;;;;;18.33;10.80;;;;;;;0.10;79.92;95043.50;5003921;28;20034;-68
2023/12/30 03:30:33;;;;;;;19.20;11.27;;;;;;;0.11;80.86;95034.91;4992187;28;20567;-68
2023/12/30 03:32:58;;;;;;;15.65;10.52;;;;;;;0.01;81.09;95041.28;4992048;28;20026;-68
2023/12/30 03:35:24;;;;;;;17.30;10.88;;;;;;;-0.09;80.72;95022.91;5010324;28;20073;-68
2023/12/30 03:37:49;;;;;;;14.80;9.70;;;;;;;-0.01;80.70;95052.38;5003222;28;20033;-68
2023/12/30 03:40:14;;;;;;;15.73;9.77;;;;;;;0.08;80.58;95040.97;5010833;28;20465;-69
2023/12/30 03:42:40;;;;;;;14.63;8.82;;;;;;;-0.17;80.34;95027.47;5009739;28;20029;-68
2023/12/30 03:45:06;;;;;;;14.13;9.35;;;;;;;-0.08;80.33;95037.38;4992369;28;20095;-68
2023/12/30 03:47:31;;;;;;;17.60;10.60;;;;;;;-0.39;80.77;95038.50;5005310;28;20045;-68
2023/12/30 03:49:57;;;;;;;16.77;9.73;;;;;;;-0.21;81.37;95043.81;4976599;28;20044;-69
2023/12/30 03:52:22;;;;;;;16.63;9.98;;;;;;;-0.13;81.36;95052.84;5009732;28;20469;-68
2023/12/30 03:54:47;;;;;;;17.80;10.48;;;;;;;-0.05;81.39;95050.84;4991370;28;20060;-68
2023/12/30 03:57:13;;;;;;;16.23;9.60;;;;;;;0.00;81.48;95043.03;5008404;28;20029;-68
2023/12/30 03:59:38;;;;;;;15.75;10.13;;;;;;;-0.09;81.16;95056.13;4972442;28;20105;-68
2023/12/30 04:02:04;;;;;;;16.75;9.95;;;;;;;0.04;80.53;95048.84;5008684;28;21042;-68
2023/12/30 04:04:29;;;;;;;21.33;11.15;;;;;;;-0.17;80.68;95056.38;5007669;28;20068;-69
2023/12/30 04:06:55;;;;;;;15.95;9.50;;;;;;;-0.02;80.80;95060.13;4976285;28;20026;-68
2023/12/30 04:09:20;;;;;;;20.13;10.50;;;;;;;-0.01;80.87;95070.25;5007920;28;20057;-68
2023/12/30 04:11:46;;;;;;;19.65;11.75;;;;;;;-0.11;80.91;95052.78;5009759;28;20076;-68
2023/12/30 04:14:11;;;;;;;18.25;10.88;;;;;;;0.05;80.64;95076.84;5007560;28;20546;-68
2023/12/30 04:16:36;;;;;;;17.77;10.77;;;;;;;0.20;79.94;95072.91;5009886;28;20355;-68
2023/12/30 04:19:02;;;;;;;20.20;11.75;;;;;;;0.12;79.73;95072.38;5008661;28;20033;-69
2023/12/30 04:21:27;;;;;;;20.13;10.88;;;;;;;0.15;80.13;95073.06;4992366;28;20451;-69
2023/12/30 04:23:53;;;;;;;21.92;12.80;;;;;;;-0.02;79.75;95071.16;4985321;28;20496;-68
2023/12/30 04:26:18;;;;;;;21.23;12.18;;;;;;;0.07;79.95;95077.66;4992005;28;20037;-68
2023/12/30 04:28:45;;;;;;;19.20;11.80;;;;;;;0.03;79.84;95067.59;4974077;28;20033;-69
2023/12/30 04:31:11;;;;;;;23.42;14.13;;;;;;;0.02;80.04;95071.03;4973911;28;20326;-69
2023/12/30 04:33:36;;;;;;;46.40;33.97;;;;;;;-0.09;80.28;95074.81;4990370;28;20492;-68
2023/12/30 04:36:02;;;;;;;25.40;13.95;;;;;;;-0.10;80.05;95069.78;5009444;28;20026;-68
2023/12/30 04:38:28;;;;;;;27.20;15.52;;;;;;;-0.27;79.90;95049.97;5005120;28;20459;-68
2023/12/30 04:40:53;;;;;;;21.42;13.98;;;;;;;-0.15;79.48;95067.38;5007945;28;20480;-68
2023/12/30 04:43:19;;;;;;;29.92;17.55;;;;;;;-0.13;79.78;95063.06;5007510;28;20052;-68
2023/12/30 04:45:44;;;;;;;28.90;19.67;;;;;;;-0.20;80.07;95055.69;5009169;28;20030;-68
2023/12/30 04:48:10;;;;;;;29.20;15.77;;;;;;;-0.10;80.34;95073.16;4988516;28;20511;-68
2023/12/30 04:50:35;;;;;;;19.10;12.35;;;;;;;-0.34;80.64;95062.13;4988981;28;20034;-68
2023/12/30 04:53:00;;;;;;;21.55;12.35;;;;;;;-0.50;81.75;95066.13;4987317;28;20127;-69
2023/12/30 04:55:26;;;;;;;18.27;12.35;;;;;;;-0.41;79.94;95072.63;5008291;28;20052;-68
2023/12/30 04:57:51;;;;;;;20.58;10.90;;;;;;;-0.58;80.50;95075.78;5006433;28;20026;-68
2023/12/30 05:00:17;;;;;;;36.33;18.20;;;;;;;-0.63;81.94;95075.09;4988669;28;20041;-68
2023/12/30 05:02:43;;;;;;;24.33;14.82;;;;;;;-0.59;82.50;95077.47;4967900;28;20045;-69
2023/12/30 05:05:09;;;;;;;23.42;13.85;;;;;;;-0.60;82.05;95083.47;5007213;28;20042;-68
2023/12/30 05:07:34;;;;;;;20.85;13.00;;;;;;;-0.41;81.35;95075.19;5004390;28;20041;-68
2023/12/30 05:09:59;;;;;;;15.48;9.05;;;;;;;-0.51;82.14;95083.16;5009154;28;20030;-68
2023/12/30 05:12:25;;;;;;;16.88;10.00;;;;;;;-0.48;82.29;95088.13;5006347;28;20088;-69
2023/12/30 05:14:50;;;;;;;15.82;8.20;;;;;;;-0.58;82.77;95088.53;5006972;28;20104;-69
2023/12/30 05:17:16;;;;;;;15.60;7.93;;;;;;;-0.54;82.86;95085.81;5005225;28;20038;-68
2023/12/30 05:19:41;;;;;;;17.05;9.52;;;;;;;-0.54;82.30;95096.03;4955482;28;20038;-68
2023/12/30 05:22:07;;;;;;;14.50;9.02;;;;;;;-0.52;82.61;95089.16;5006802;28;20046;-68
2023/12/30 05:24:32;;;;;;;11.18;7.53;;;;;;;-0.45;82.24;95089.75;5007286;28;20026;-68
2023/12/30 05:26:57;;;;;;;12.50;7.97;;;;;;;-0.59;82.26;95095.34;5005867;28;20393;-68
2023/12/30 05:29:23;;;;;;;16.02;9.07;;;;;;;-0.56;82.69;95095.22;5005090;28;20025;-68
2023/12/30 05:31:49;;;;;;;10.65;7.50;;;;;;;-0.61;82.11;95071.63;4988679;28;20033;-68
2023/12/30 05:34:14;;;;;;;10.88;6.20;;;;;;;-0.50;82.58;95105.25;4989184;28;20030;-68
2023/12/30 05:36:39;;;;;;;10.20;6.22;;;;;;;-0.49;82.39;95109.47;5006533;28;20081;-69
2023/12/30 05:39:05;;;;;;;13.02;8.05;;;;;;;-0.62;83.17;95110.75;5000069;28;20077;-68
2023/12/30 05:41:31;;;;;;;14.80;8.23;;;;;;;-0.70;83.14;95094.88;4990522;28;20037;-69
2023/12/30 05:43:56;;;;;;;13.45;8.98;;;;;;;-0.79;84.02;95101.13;4957329;28;20025;-68
2023/12/30 05:46:21;;;;;;;11.00;7.88;;;;;;;-0.58;83.20;95093.66;4989921;28;20034;-68
2023/12/30 05:48:47;;;;;;;13.35;7.47;;;;;;;-0.52;82.73;95099.34;4967582;28;20431;-69
2023/12/30 05:51:12;;;;;;;13.55;8.98;;;;;;;-0.66;82.89;95101.56;5007778;28;20053;-69
2023/12/30 05:53:40;;;;;;;21.15;13.98;;;;;;;-0.53;83.05;95100.25;4989384;28;20026;-68
2023/12/30 05:56:05;;;;;;;24.67;14.75;;;;;;;-0.46;83.49;95109.34;4989146;28;20117;-70
2023/12/30 05:58:31;;;;;;;25.38;13.77;;;;;;;-0.52;83.32;95107.00;4986804;28;20100;-69
2023/12/30 06:00:57;;;;;;;22.30;13.68;;;;;;;-0.40;83.27;95110.84;4974511;28;20038;-69
2023/12/30 06:03:22;;;;;;;26.88;14.82;;;;;;;-0.54;83.12;95119.00;4989566;28;20045;-69
2023/12/30 06:05:48;;;;;;;33.92;18.60;;;;;;;-0.47;83.11;95117.91;4990787;28;20026;-69
2023/12/30 06:08:13;;;;;;;29.20;17.50;;;;;;;-0.62;83.31;95104.84;4986879;28;20045;-70
2023/12/30 06:10:39;;;;;;;30.75;18.10;;;;;;;-0.74;83.65;95116.31;5007833;28;20092;-70
2023/12/30 06:13:04;;;;;;;34.40;18.65;;;;;;;-0.71;83.88;95095.78;4990361;28;20424;-69
2023/12/30 06:15:29;;;;;;;29.15;16.42;;;;;;;-0.42;82.28;95116.91;5006519;28;20022;-68
2023/12/30 06:17:55;;;;;;;28.92;16.00;;;;;;;-0.46;82.26;95124.66;5004881;28;20038;-68
2023/12/30 06:20:21;;;;;;;21.40;12.68;;;;;;;-0.42;82.73;95122.81;5004341;28;20456;-68
2023/12/30 06:22:46;;;;;;;15.13;9.30;;;;;;;-0.23;81.47;95125.56;5002576;28;20100;-68
2023/12/30 06:25:12;;;;;;;27.00;16.27;;;;;;;-0.51;82.72;95131.63;4989714;28;20113;-68
2023/12/30 06:27:37;;;;;;;21.85;14.98;;;;;;;-0.32;81.83;95131.84;5004419;28;20041;-69
2023/12/30 06:30:04;;;;;;;19.05;12.27;;;;;;;-0.19;81.08;95139.09;5003849;28;20484;-69
2023/12/30 06:32:30;;;;;;;27.85;11.85;;;;;;;-0.13;80.79;95139.69;5005373;28;20424;-69
2023/12/30 06:34:55;;;;;;;22.83;15.05;;;;;;;-0.15;81.25;95123.56;5006837;28;20030;-70
2023/12/30 06:37:20;;;;;;;23.50;16.33;;;;;;;-0.30;80.75;95099.44;5002507;28;20088;-69
2023/12/30 06:39:46;;;;;;;27.15;15.43;;;;;;;-0.03;79.82;95123.16;4999914;28;20436;-69
2023/12/30 06:42:11;;;;;;;26.77;15.05;;;;;;;-0.09;79.94;95136.13;5001248;28;20415;-69
2023/12/30 06:44:37;;;;;;;27.25;14.20;;;;;;;-0.03;79.72;95141.03;5001390;28;20476;-69
2023/12/30 06:47:05;;;;;;;27.92;15.00;;;;;;;-0.06;79.45;95136.00;4999933;28;20026;-69
2023/12/30 06:49:30;;;;;;;37.08;23.60;;;;;;;-0.16;79.89;95144.91;5000010;28;20055;-69
2023/12/30 06:51:55;;;;;;;36.22;22.73;;;;;;;-0.44;80.01;95111.84;5003214;28;20042;-69
2023/12/30 06:54:21;;;;;;;27.80;18.85;;;;;;;-0.07;80.14;95162.44;5003278;28;20466;-68
2023/12/30 06:56:49;;;;;;;38.30;22.90;;;;;;;-0.29;79.67;95159.00;5004821;28;20029;-69
2023/12/30 06:59:15;;;;;;;39.28;24.83;;;;;;;-0.32;80.01;95156.53;5003581;28;20480;-68
2023/12/30 07:01:41;;;;;;;44.97;29.95;;;;;;;-0.54;80.89;95153.91;4989930;28;20073;-68
2023/12/30 07:04:06;;;;;;;44.67;26.65;;;;;;;-0.71;81.50;95126.41;4971373;28;20027;-68
2023/12/30 07:06:32;;;;;;;41.38;26.83;;;;;;;-0.26;80.58;95163.97;5004106;28;20205;-69
2023/12/30 07:08:57;;;;;;;53.25;33.17;;;;;;;-0.40;80.31;95146.59;5003696;28;20996;-68
2023/12/30 07:11:23;;;;;;;49.17;30.95;;;;;;;-0.13;79.44;95160.13;4989683;28;20037;-69
2023/12/30 07:13:48;;;;;;;57.63;35.15;;;;;;;-0.12;79.33;95164.31;5005816;28;20053;-69
2023/12/30 07:16:15;;;;;;;52.05;31.73;;;;;;;0.03;79.31;95157.84;5007414;28;20042;-68
2023/12/30 07:18:41;;;;;;;51.42;33.08;;;;;;;-0.30;79.81;95162.44;5002619;28;20141;-69
2023/12/30 07:21:06;;;;;;;50.22;29.65;;;;;;;-0.27;79.53;95170.00;5004953;28;20106;-68
2023/12/30 07:23:31;;;;;;;43.42;27.67;;;;;;;-0.13;79.07;95164.41;4987106;28;20042;-72
2023/12/30 07:25:57;;;;;;;47.58;28.95;;;;;;;-0.36;79.78;95173.69;5006059;28;20477;-68
2023/12/30 07:28:22;;;;;;;36.58;23.48;;;;;;;-0.23;79.58;95174.09;4986293;28;20046;-69
2023/12/30 07:30:48;;;;;;;33.42;19.48;;;;;;;-0.26;79.45;95177.56;5000260;28;20029;-68
2023/12/30 07:33:14;;;;;;;29.02;16.63;;;;;;;-0.56;80.26;95174.34;5003728;28;20030;-69
2023/12/30 07:35:39;;;;;;;21.35;13.63;;;;;;;-0.27;80.11;95182.75;5006707;28;20061;-68
2023/12/30 07:38:05;;;;;;;27.38;16.77;;;;;;;-0.33;79.89;95188.06;4986866;28;20037;-68
2023/12/30 07:40:30;;;;;;;33.45;20.83;;;;;;;-0.24;79.98;95187.75;5005102;28;20049;-69
2023/12/30 07:42:56;;;;;;;33.35;21.60;;;;;;;-0.13;80.23;95192.50;5005893;28;20088;-69
2023/12/30 07:45:21;;;;;;;29.13;18.98;;;;;;;-0.22;80.41;95188.53;5007772;28;20038;-68
2023/12/30 07:47:47;;;;;;;31.75;18.90;;;;;;;-0.01;79.97;95177.53;5006307;28;20029;-68
2023/12/30 07:50:12;;;;;;;33.95;18.98;;;;;;;-0.03;79.72;95171.69;5010733;28;20377;-68
2023/12/30 07:52:38;;;;;;;34.92;19.75;;;;;;;0.15;80.01;95189.78;5008238;28;20034;-68
2023/12/30 07:55:04;;;;;;;28.42;20.08;;;;;;;0.14;80.39;95188.09;4992132;28;20037;-68
2023/12/30 07:57:30;;;;;;;24.75;15.15;;;;;;;0.33;79.11;95189.09;5006448;28;20038;-68
2023/12/30 07:59:55;;;;;;;20.98;13.55;;;;;;;0.43;79.18;95193.00;5009826;28;20255;-69
2023/12/30 08:02:21;;;;;;;18.33;11.50;;;;;;;0.49;79.14;95202.16;4991080;28;20427;-68
2023/12/30 08:04:46;;;;;;;33.58;19.38;;;;;;;0.38;80.10;95202.53;5007363;28;20034;-69
2023/12/30 08:07:11;;;;;;;51.33;31.08;;;;;;;0.42;81.11;95209.22;5004106;28;20038;-68
2023/12/30 08:09:37;;;;;;;56.90;35.40;;;;;;;0.61;81.33;95198.28;4997588;28;20052;-68
2023/12/30 08:12:04;;;;;;;57.65;36.80;;;;;;;0.57;81.52;95201.88;5010800;28;20038;-68
2023/12/30 08:14:29;;;;;;;47.65;31.50;;;;;;;0.61;81.96;95201.72;5006457;28;20079;-69
2023/12/30 08:16:55;;;;;;;40.83;24.65;;;;;;;0.91;81.12;95195.47;5006347;28;20591;-68
2023/12/30 08:19:20;;;;;;;38.50;26.77;;;;;;;1.12;80.00;95204.88;5007626;28;20088;-68
2023/12/30 08:21:45;;;;;;;49.10;30.48;;;;;;;1.32;80.19;95209.19;5008703;28;20053;-68
2023/12/30 08:24:14;;;;;;;43.15;28.15;;;;;;;1.49;80.19;95216.16;5006454;28;20045;-69
2023/12/30 08:26:39;;;;;;;40.50;25.90;;;;;;;1.51;80.38;95212.66;5008799;28;20032;-68
2023/12/30 08:29:08;;;;;;;49.00;31.70;;;;;;;1.55;80.72;95196.25;4986814;28;20499;-68
2023/12/30 08:31:35;;;;;;;55.33;33.92;;;;;;;1.74;79.87;95221.94;4987929;28;20472;-68
2023/12/30 08:34:00;;;;;;;47.30;28.52;;;;;;;1.94;79.22;95215.16;5003371;28;20025;-68
2023/12/30 08:36:28;;;;;;;35.42;22.13;;;;;;;1.85;79.46;95210.41;5002438;28;20034;-68
2023/12/30 08:38:54;;;;;;;39.45;24.83;;;;;;;2.03;79.27;95219.03;4985383;28;20922;-68
2023/12/30 08:41:24;;;;;;;42.40;24.30;;;;;;;2.09;79.64;95218.78;4988885;28;20045;-69
2023/12/30 08:43:52;;;;;;;37.23;21.03;;;;;;;2.45;78.20;95224.03;5005428;28;20469;-69
2023/12/30 08:46:17;;;;;;;30.80;19.00;;;;;;;2.72;77.24;95219.38;5000589;28;20133;-69
2023/12/30 08:48:43;;;;;;;34.13;20.15;;;;;;;2.95;76.37;95220.88;5003030;28;20040;-69
2023/12/30 08:51:08;;;;;;;36.08;21.63;;;;;;;3.07;76.30;95202.38;5004854;28;20033;-69
2023/12/30 08:53:34;;;;;;;34.63;22.10;;;;;;;3.19;75.07;95207.81;4991361;28;20424;-69
2023/12/30 08:56:01;;;;;;;32.35;22.65;;;;;;;3.24;74.99;95195.59;5003449;28;20022;-68
2023/12/30 08:58:27;;;;;;;35.25;22.33;;;;;;;3.26;75.03;95175.78;4972304;28;20034;-69
2023/12/30 09:00:53;;;;;;;32.90;20.92;;;;;;;3.43;74.65;95180.97;5008629;28;20076;-69
2023/12/30 09:03:18;;;;;;;31.45;20.70;;;;;;;3.61;74.86;95198.94;4991023;28;20038;-68
2023/12/30 09:05:44;;;;;;;26.25;18.55;;;;;;;3.72;73.92;95200.06;5006962;28;20053;-69
2023/12/30 09:08:10;;;;;;;26.52;17.77;;;;;;;3.77;73.74;95184.44;5006406;28;20099;-69
2023/12/30 09:10:35;;;;;;;38.65;23.63;;;;;;;3.70;74.46;95185.63;5007424;28;20033;-68
2023/12/30 09:13:00;;;;;;;37.22;22.65;;;;;;;3.71;74.82;95180.44;5009593;28;20033;-69
2023/12/30 09:15:26;;;;;;;38.63;25.70;;;;;;;3.93;74.46;95181.91;5007818;28;20045;-69
2023/12/30 09:17:51;;;;;;;33.88;21.25;;;;;;;4.12;74.03;95181.78;5005567;28;20042;-69
2023/12/30 09:20:17;;;;;;;40.70;25.65;;;;;;;4.23;73.80;95190.63;4990939;28;20041;-69
2023/12/30 09:22:42;;;;;;;41.63;27.67;;;;;;;4.19;74.44;95180.56;4989523;28;20042;-68
2023/12/30 09:25:08;;;;;;;42.33;27.02;;;;;;;4.38;73.85;95178.69;5004927;28;20403;-69
2023/12/30 09:27:33;;;;;;;38.83;25.10;;;;;;;4.46;73.60;95175.72;4988806;28;20034;-69
2023/12/30 09:29:59;;;;;;;42.85;26.70;;;;;;;4.18;74.70;95173.75;4974899;28;20393;-69
2023/12/30 09:32:24;;;;;;;41.83;26.88;;;;;;;4.28;74.45;95156.94;4988088;28;20049;-69
2023/12/30 09:34:50;;;;;;;39.38;25.58;;;;;;;4.31;74.94;95155.94;4990251;28;20439;-69
2023/12/30 09:37:17;;;;;;;47.85;31.05;;;;;;;4.41;74.98;95160.53;5003209;28;20030;-69
2023/12/30 09:39:43;;;;;;;37.92;24.58;;;;;;;4.54;74.42;95157.28;4986317;28;20022;-69
2023/12/30 09:42:08;;;;;;;40.95;27.92;;;;;;;4.58;74.39;95153.66;4987465;28;20034;-69
2023/12/30 09:44:34;;;;;;;45.47;28.98;;;;;;;4.51;75.02;95142.84;4986714;28;20022;-69
2023/12/30 09:46:59;;;;;;;37.05;23.80;;;;;;;4.78;73.37;95137.94;4974348;28;20069;-69
2023/12/30 09:49:25;;;;;;;36.13;24.30;;;;;;;4.87;73.57;95141.75;4971653;28;20117;-69
2023/12/30 09:51:50;;;;;;;38.22;24.38;;;;;;;5.07;72.83;95138.94;4973963;28;20045;-69
2023/12/30 09:54:15;;;;;;;52.25;33.80;;;;;;;4.91;73.62;95131.22;4989809;28;20034;-72
2023/12/30 09:56:41;;;;;;;57.10;34.97;;;;;;;4.89;73.57;95137.38;4989070;28;20284;-69
2023/12/30 09:59:07;;;;;;;46.15;30.55;;;;;;;5.03;73.94;95136.59;4986471;28;20439;-68
2023/12/30 10:01:33;;;;;;;45.67;26.70;;;;;;;5.06;73.17;95133.84;4986928;28;20031;-69
2023/12/30 10:03:58;;;;;;;34.45;23.92;;;;;;;4.78;73.79;95122.50;5007160;28;20042;-69
2023/12/30 10:06:23;;;;;;;36.00;25.30;;;;;;;5.22;73.54;95136.41;4972632;28;20773;-69
2023/12/30 10:08:49;;;;;;;36.13;23.00;;;;;;;5.50;72.13;95133.06;4972060;28;20037;-69
2023/12/30 10:11:15;;;;;;;31.83;21.33;;;;;;;5.50;71.87;95127.91;4988444;28;20068;-69
2023/12/30 10:13:40;;;;;;;32.05;21.70;;;;;;;5.40;72.47;95126.78;4974337;28;20723;-69
2023/12/30 10:16:06;;;;;;;33.58;20.95;;;;;;;5.21;72.78;95116.69;5006221;28;20041;-69
2023/12/30 10:18:38;;;;;;;28.48;18.65;;;;;;;5.03;72.83;95119.41;4985455;28;20038;-69
2023/12/30 10:21:04;;;;;;;31.67;21.30;;;;;;;5.19;72.60;95110.81;4985939;28;20266;-69
2023/12/30 10:23:33;;;;;;;30.65;20.30;;;;;;;5.61;72.07;95107.50;5006774;28;20030;-69
2023/12/30 10:25:59;;;;;;;27.50;19.70;;;;;;;5.87;70.98;95107.72;4989009;28;20042;-69
2023/12/30 10:28:24;;;;;;;26.35;17.95;;;;;;;5.78;71.30;95094.44;4984513;28;20030;-69
2023/12/30 10:31:06;;;;;;;25.92;18.55;;;;;;;6.11;70.44;95100.28;5008435;28;20026;-69
2023/12/30 10:33:32;;;;;;;26.77;16.88;;;;;;;6.32;69.08;95090.41;4990563;28;20042;-67
2023/12/30 10:35:58;;;;;;;25.67;17.50;;;;;;;6.46;68.14;95096.38;4993291;28;20516;-69
2023/12/30 10:38:23;;;;;;;27.20;19.33;;;;;;;6.23;69.84;95099.53;5006818;28;20033;-69
2023/12/30 10:40:52;;;;;;;28.25;17.92;;;;;;;6.28;69.58;95105.25;4972198;28;20033;-69
2023/12/30 10:43:19;;;;;;;28.30;17.83;;;;;;;6.39;69.32;95096.84;4988996;28;20474;-69
2023/12/30 10:45:47;;;;;;;26.05;18.38;;;;;;;6.28;69.01;95088.94;5002144;28;20040;-69
2023/12/30 10:48:13;;;;;;;31.38;20.10;;;;;;;6.39;68.70;95079.59;5005907;28;20034;-69
2023/12/30 10:50:39;;;;;;;29.35;19.88;;;;;;;6.60;68.14;95087.78;4987454;28;20030;-69
2023/12/30 10:53:11;;;;;;;29.58;20.05;;;;;;;6.54;68.63;95088.13;5004295;28;20538;-69
2023/12/30 10:55:37;;;;;;;29.27;19.13;;;;;;;6.44;68.96;95082.72;5006298;28;20526;-70
2023/12/30 10:58:06;;;;;;;31.38;19.63;;;;;;;6.38;69.16;95083.13;5004911;28;20034;-69
2023/12/30 11:00:35;;;;;;;28.52;18.42;;;;;;;6.62;68.37;95080.75;5005553;28;20096;-69
2023/12/30 11:03:01;;;;;;;35.47;21.75;;;;;;;6.66;68.16;95071.91;4986150;28;20030;-69
2023/12/30 11:05:48;;;;;;;37.90;23.08;;;;;;;6.72;67.77;95068.91;4989167;28;20033;-70
2023/12/30 11:08:14;;;;;;;28.40;17.88;;;;;;;6.88;67.33;95070.50;4991453;28;20543;-69
2023/12/30 11:10:39;;;;;;;30.20;19.92;;;;;;;7.07;67.18;95068.41;4988858;28;20041;-69
2023/12/30 11:13:05;;;;;;;28.60;17.80;;;;;;;7.12;66.89;95071.50;4984431;28;20035;-69
2023/12/30 11:15:31;;;;;;;27.40;17.73;;;;;;;7.48;65.50;95064.84;4988550;28;20026;-70
2023/12/30 11:17:57;;;;;;;27.75;17.70;;;;;;;7.42;65.67;95043.78;4991873;28;20084;-69